createdAt,value
2023-03-05T00:02:06.918Z,13.68
2023-03-05T00:04:35.525Z,14.60
2023-03-05T00:07:02.423Z,14.48
2023-03-05T00:09:29.134Z,15.50
2023-03-05T00:11:55.961Z,14.45
2023-03-05T00:14:23.580Z,15.60
2023-03-05T00:16:50.226Z,16.20
2023-03-05T00:19:16.975Z,15.27
2023-03-05T00:21:45.027Z,14.45
2023-03-05T00:24:15.154Z,17.38
2023-03-05T00:26:42.526Z,15.50
2023-03-05T00:29:09.969Z,15.45
2023-03-05T00:31:38.035Z,15.65
2023-03-05T00:34:11.828Z,14.80
2023-03-05T00:36:43.110Z,15.77
2023-03-05T00:39:11.022Z,14.85
2023-03-05T00:41:38.712Z,14.13
2023-03-05T00:44:05.597Z,15.32
2023-03-05T00:46:33.116Z,15.27
2023-03-05T00:48:59.900Z,15.88
2023-03-05T00:51:26.872Z,16.70
2023-03-05T00:53:53.687Z,15.38
2023-03-05T00:56:21.274Z,14.15
2023-03-05T00:58:48.205Z,15.25
2023-03-05T01:01:16.338Z,15.10
2023-03-05T01:03:43.150Z,15.40
2023-03-05T01:06:13.671Z,14.30
2023-03-05T01:08:40.588Z,15.95
2023-03-05T01:11:08.808Z,16.30
2023-03-05T01:13:35.819Z,15.88
2023-03-05T01:16:03.263Z,16.90
2023-03-05T01:18:29.937Z,15.85
2023-03-05T01:20:56.745Z,17.05
2023-03-05T01:23:23.946Z,16.90
2023-03-05T01:25:53.772Z,17.23
2023-03-05T01:28:20.523Z,16.48
2023-03-05T01:30:47.769Z,18.75
2023-03-05T01:33:14.610Z,16.80
2023-03-05T01:35:41.935Z,17.55
2023-03-05T01:38:08.843Z,18.77
2023-03-05T01:40:35.543Z,18.52
2023-03-05T01:43:22.324Z,16.90
2023-03-05T01:45:52.776Z,19.98
2023-03-05T01:48:19.592Z,20.25
2023-03-05T01:50:48.705Z,20.48
2023-03-05T01:53:15.416Z,19.05
2023-03-05T01:55:42.233Z,20.50
2023-03-05T01:58:13.125Z,20.38
2023-03-05T02:00:48.593Z,18.52
2023-03-05T02:03:15.613Z,17.08
2023-03-05T02:05:44.710Z,17.23
2023-03-05T02:08:17.793Z,17.17
2023-03-05T02:10:47.337Z,16.23
2023-03-05T02:13:22.810Z,14.35
2023-03-05T02:15:50.877Z,15.02
2023-03-05T02:18:19.668Z,16.50
2023-03-05T02:20:51.189Z,15.82
2023-03-05T02:23:21.296Z,14.93
2023-03-05T02:25:48.598Z,13.55
2023-03-05T02:28:45.740Z,13.43
2023-03-05T02:31:18.184Z,12.20
2023-03-05T02:33:47.285Z,12.35
2023-03-05T02:36:14.207Z,12.57
2023-03-05T02:38:42.062Z,13.55
2023-03-05T02:41:09.124Z,13.27
2023-03-05T02:43:36.654Z,12.65
2023-03-05T02:46:04.394Z,10.50
2023-03-05T02:48:31.799Z,11.25
2023-03-05T02:50:58.614Z,10.55
2023-03-05T02:53:26.518Z,9.65
2023-03-05T02:55:53.253Z,9.60
2023-03-05T02:58:20.095Z,9.23
2023-03-05T03:00:49.714Z,8.75
2023-03-05T03:03:16.654Z,8.48
2023-03-05T03:05:43.410Z,7.15
2023-03-05T03:08:10.593Z,7.78
2023-03-05T03:10:38.149Z,8.50
2023-03-05T03:13:05.112Z,7.25
2023-03-05T03:15:31.854Z,7.63
2023-03-05T03:17:58.775Z,8.68
2023-03-05T03:20:25.577Z,7.57
2023-03-05T03:25:21.814Z,6.88
2023-03-05T03:27:49.030Z,6.60
2023-03-05T03:30:16.804Z,7.35
2023-03-05T03:32:44.118Z,8.00
2023-03-05T03:35:12.806Z,7.10
2023-03-05T03:37:40.391Z,7.55
2023-03-05T03:40:08.179Z,7.25
2023-03-05T03:42:35.162Z,7.45
2023-03-05T03:45:02.612Z,8.13
2023-03-05T03:47:30.596Z,7.38
2023-03-05T03:49:59.471Z,7.55
2023-03-05T03:52:26.781Z,7.28
2023-03-05T03:54:53.912Z,6.55
2023-03-05T03:57:21.057Z,8.07
2023-03-05T03:59:48.023Z,7.00
2023-03-05T04:02:14.718Z,6.97
2023-03-05T04:04:41.596Z,7.75
2023-03-05T04:07:08.440Z,7.55
2023-03-05T04:09:35.335Z,6.43
2023-03-05T04:12:02.777Z,7.68
2023-03-05T04:14:32.315Z,7.18
2023-03-05T04:16:59.279Z,8.18
2023-03-05T04:19:25.927Z,7.60
2023-03-05T04:21:53.728Z,7.43
2023-03-05T04:24:20.373Z,7.63
2023-03-05T04:26:47.063Z,7.50
2023-03-05T04:29:13.824Z,9.05
2023-03-05T04:31:40.578Z,7.93
2023-03-05T04:34:07.249Z,7.55
2023-03-05T04:36:34.149Z,7.57
2023-03-05T04:39:01.250Z,8.02
2023-03-05T04:41:28.336Z,7.82
2023-03-05T04:43:55.030Z,7.88
2023-03-05T04:46:22.058Z,7.43
2023-03-05T04:48:48.839Z,6.95
2023-03-05T04:51:16.189Z,7.18
2023-03-05T04:53:42.813Z,7.78
2023-03-05T04:56:09.517Z,7.75
2023-03-05T04:58:39.510Z,7.63
2023-03-05T05:01:07.479Z,7.88
2023-03-05T05:03:34.589Z,7.38
2023-03-05T05:06:01.988Z,7.55
2023-03-05T05:08:29.436Z,7.40
2023-03-05T05:10:57.486Z,6.57
2023-03-05T05:13:26.212Z,7.43
2023-03-05T05:15:52.854Z,6.82
2023-03-05T05:18:20.725Z,6.95
2023-03-05T05:20:48.361Z,7.03
2023-03-05T05:23:15.593Z,7.95
2023-03-05T05:25:43.510Z,7.38
2023-03-05T05:28:11.627Z,7.70
2023-03-05T05:30:39.196Z,7.63
2023-03-05T05:33:05.875Z,8.63
2023-03-05T05:35:33.650Z,7.05
2023-03-05T05:38:00.545Z,7.28
2023-03-05T05:40:27.354Z,7.57
2023-03-05T05:42:54.250Z,7.38
2023-03-05T05:45:21.004Z,7.00
2023-03-05T05:47:48.013Z,7.00
2023-03-05T05:50:15.129Z,6.95
2023-03-05T05:52:41.805Z,6.95
2023-03-05T05:55:09.272Z,7.15
2023-03-05T05:57:36.549Z,7.65
2023-03-05T06:00:06.979Z,7.15
2023-03-05T06:02:34.328Z,6.85
2023-03-05T06:05:01.074Z,6.35
2023-03-05T06:07:28.560Z,7.28
2023-03-05T06:09:55.233Z,7.03
2023-03-05T06:12:21.925Z,7.68
2023-03-05T06:14:48.644Z,7.55
2023-03-05T06:17:25.094Z,7.93
2023-03-05T06:19:56.842Z,7.20
2023-03-05T06:22:23.575Z,6.68
2023-03-05T06:24:50.517Z,6.95
2023-03-05T06:27:17.503Z,6.05
2023-03-05T06:29:44.317Z,7.07
2023-03-05T06:32:11.254Z,6.93
2023-03-05T06:34:38.100Z,7.32
2023-03-05T06:37:06.272Z,6.20
2023-03-05T06:39:33.671Z,6.30
2023-03-05T06:42:00.531Z,5.70
2023-03-05T06:44:27.534Z,5.47
2023-03-05T06:46:54.428Z,5.75
2023-03-05T06:49:21.209Z,5.32
2023-03-05T06:51:47.932Z,5.35
2023-03-05T06:54:16.742Z,6.05
2023-03-05T06:56:46.064Z,5.78
2023-03-05T06:59:15.445Z,5.28
2023-03-05T07:01:43.498Z,5.00
2023-03-05T07:04:12.443Z,4.68
2023-03-05T07:06:39.973Z,3.60
2023-03-05T07:09:08.240Z,3.35
2023-03-05T07:11:35.321Z,3.70
2023-03-05T07:14:03.150Z,2.90
2023-03-05T07:16:33.131Z,3.40
2023-03-05T07:19:05.657Z,2.97
2023-03-05T07:21:34.437Z,3.40
2023-03-05T07:24:02.980Z,3.92
2023-03-05T07:26:31.184Z,3.08
2023-03-05T07:28:58.068Z,3.05
2023-03-05T07:31:33.506Z,3.30
2023-03-05T07:34:02.674Z,3.17
2023-03-05T07:36:32.241Z,3.05
2023-03-05T07:38:59.197Z,3.20
2023-03-05T07:41:27.354Z,3.38
2023-03-05T07:43:55.345Z,4.03
2023-03-05T07:46:31.412Z,3.17
2023-03-05T07:48:59.864Z,3.10
2023-03-05T07:51:27.715Z,3.28
2023-03-05T07:53:57.629Z,3.17
2023-03-05T07:56:31.906Z,2.80
2023-03-05T07:59:00.363Z,2.83
2023-03-05T08:01:29.289Z,3.05
2023-03-05T08:03:56.275Z,3.03
2023-03-05T08:06:23.002Z,3.30
2023-03-05T08:08:49.785Z,2.72
2023-03-05T08:11:18.278Z,2.58
2023-03-05T08:13:45.768Z,2.60
2023-03-05T08:16:16.061Z,2.80
2023-03-05T08:18:43.022Z,2.53
2023-03-05T08:21:21.196Z,3.10
2023-03-05T08:23:48.887Z,4.25
2023-03-05T08:26:18.774Z,3.55
2023-03-05T08:28:45.724Z,3.05
2023-03-05T08:31:14.286Z,2.50
2023-03-05T08:33:41.912Z,2.42
2023-03-05T08:36:09.765Z,2.53
2023-03-05T08:38:36.756Z,3.00
2023-03-05T08:41:04.274Z,2.50
2023-03-05T08:43:33.988Z,2.90
2023-03-05T08:46:01.753Z,2.20
2023-03-05T08:48:31.918Z,2.50
2023-03-05T08:51:05.309Z,2.28
2023-03-05T08:53:32.057Z,2.80
2023-03-05T08:56:02.088Z,2.60
2023-03-05T08:58:28.983Z,2.58
2023-03-05T09:00:59.094Z,2.33
2023-03-05T09:03:26.185Z,2.47
2023-03-05T09:05:54.035Z,2.60
2023-03-05T09:08:21.389Z,2.25
2023-03-05T09:10:48.249Z,2.00
2023-03-05T09:13:15.045Z,2.08
2023-03-05T09:15:41.833Z,1.92
2023-03-05T09:18:09.389Z,2.47
2023-03-05T09:20:37.054Z,1.80
2023-03-05T09:23:05.865Z,2.20
2023-03-05T09:25:32.957Z,2.50
2023-03-05T09:28:00.918Z,1.80
2023-03-05T09:30:27.746Z,2.13
2023-03-05T09:32:55.010Z,2.20
2023-03-05T09:35:21.779Z,1.92
2023-03-05T09:37:48.700Z,1.90
2023-03-05T09:40:18.148Z,1.90
2023-03-05T09:42:47.514Z,1.80
2023-03-05T09:45:54.193Z,1.98
2023-03-05T09:48:54.058Z,2.13
2023-03-05T09:51:29.493Z,2.10
2023-03-05T09:54:05.672Z,1.85
2023-03-05T09:56:39.956Z,2.10
2023-03-05T09:59:28.736Z,2.15
2023-03-05T10:02:12.653Z,1.90
2023-03-05T10:07:26.018Z,2.60
2023-03-05T10:09:53.982Z,2.20
2023-03-05T10:12:28.066Z,2.35
2023-03-05T10:14:55.693Z,2.10
2023-03-05T10:17:51.165Z,1.95
2023-03-05T10:20:45.931Z,2.03
2023-03-05T10:23:33.788Z,1.67
2023-03-05T10:26:22.539Z,2.17
2023-03-05T10:28:52.945Z,2.05
2023-03-05T10:31:25.748Z,2.13
2023-03-05T10:33:52.985Z,2.08
2023-03-05T10:36:28.401Z,2.42
2023-03-05T10:39:07.014Z,1.90
2023-03-05T10:41:53.918Z,2.10
2023-03-05T10:44:46.857Z,2.45
2023-03-05T10:47:44.203Z,2.08
2023-03-05T10:50:24.287Z,2.58
2023-03-05T10:52:52.952Z,2.17
2023-03-05T10:55:22.091Z,3.22
2023-03-05T10:57:50.487Z,2.92
2023-03-05T11:00:28.315Z,2.80
2023-03-05T11:03:03.103Z,3.65
2023-03-05T11:05:39.211Z,3.03
2023-03-05T11:08:27.610Z,3.47
2023-03-05T11:11:09.761Z,3.22
2023-03-05T11:13:54.035Z,4.10
2023-03-05T11:16:27.927Z,4.55
2023-03-05T11:19:11.813Z,3.97
2023-03-05T11:21:38.631Z,4.50
2023-03-05T11:24:19.881Z,4.38
2023-03-05T11:26:54.151Z,4.40
2023-03-05T11:29:29.388Z,5.18
2023-03-05T11:31:57.156Z,4.60
2023-03-05T11:34:32.743Z,4.80
2023-03-05T11:37:08.327Z,4.47
2023-03-05T11:39:38.477Z,4.40
2023-03-05T11:42:13.249Z,4.15
2023-03-05T11:44:53.990Z,4.53
2023-03-05T11:47:36.103Z,3.83
2023-03-05T11:50:14.955Z,4.55
2023-03-05T11:52:54.030Z,4.10
2023-03-05T11:55:46.160Z,3.95
2023-03-05T11:58:32.699Z,3.47
2023-03-05T12:01:01.450Z,4.40
2023-03-05T12:03:35.343Z,4.20
2023-03-05T12:06:18.091Z,3.88
2023-03-05T12:08:49.981Z,4.30
2023-03-05T12:11:26.596Z,4.00
2023-03-05T12:13:57.942Z,3.83
2023-03-05T12:16:51.074Z,4.65
2023-03-05T12:19:38.920Z,4.85
2023-03-05T12:22:15.331Z,4.30
2023-03-05T12:24:42.117Z,4.75
2023-03-05T12:27:12.197Z,4.88
2023-03-05T12:32:35.416Z,4.13
2023-03-05T12:35:04.628Z,4.22
2023-03-05T12:37:34.524Z,3.80
2023-03-05T12:40:28.460Z,3.70
2023-03-05T12:42:57.585Z,4.13
2023-03-05T12:45:28.425Z,4.57
2023-03-05T12:47:55.095Z,4.40
2023-03-05T12:50:28.108Z,5.15
2023-03-05T12:52:57.218Z,5.20
2023-03-05T12:55:48.275Z,4.57
2023-03-05T12:58:42.740Z,4.15
2023-03-05T13:01:12.501Z,4.53
2023-03-05T13:03:54.104Z,3.90
2023-03-05T13:06:47.426Z,4.90
2023-03-05T13:09:40.551Z,4.43
2023-03-05T13:12:14.049Z,4.50
2023-03-05T13:14:49.026Z,4.00
2023-03-05T13:17:41.269Z,4.53
2023-03-05T13:20:29.324Z,4.72
2023-03-05T13:23:08.258Z,4.60
2023-03-05T13:25:35.132Z,4.95
2023-03-05T13:28:11.310Z,5.13
2023-03-05T13:30:38.897Z,5.10
2023-03-05T13:33:06.178Z,4.60
2023-03-05T13:35:33.893Z,4.75
2023-03-05T13:38:02.274Z,4.82
2023-03-05T13:40:31.866Z,4.82
2023-03-05T13:43:17.980Z,5.68
2023-03-05T13:45:54.270Z,5.30
2023-03-05T13:48:21.909Z,5.18
2023-03-05T13:50:54.159Z,5.10
2023-03-05T13:53:27.475Z,5.10
2023-03-05T13:56:01.429Z,5.05
2023-03-05T13:58:54.065Z,4.65
2023-03-05T14:01:34.297Z,5.32
2023-03-05T14:04:18.136Z,4.50
2023-03-05T14:06:54.048Z,4.30
2023-03-05T14:09:26.931Z,4.72
2023-03-05T14:12:02.548Z,5.13
2023-03-05T14:14:31.781Z,4.88
2023-03-05T14:17:27.697Z,4.15
2023-03-05T14:20:10.524Z,4.88
2023-03-05T14:22:39.364Z,4.80
2023-03-05T14:25:24.496Z,5.20
2023-03-05T14:30:22.221Z,5.32
2023-03-05T14:35:24.551Z,5.25
2023-03-05T14:37:54.060Z,5.63
2023-03-05T14:40:33.118Z,5.07
2023-03-05T14:43:02.007Z,4.97
2023-03-05T14:45:30.779Z,5.75
2023-03-05T14:48:00.397Z,5.35
2023-03-05T14:50:33.943Z,5.22
2023-03-05T14:53:16.680Z,5.55
2023-03-05T14:55:43.948Z,5.90
2023-03-05T14:58:16.756Z,5.25
2023-03-05T15:00:43.781Z,5.57
2023-03-05T15:03:15.229Z,5.13
2023-03-05T15:05:43.811Z,5.40
2023-03-05T15:08:17.366Z,5.30
2023-03-05T15:10:44.279Z,4.50
2023-03-05T15:13:12.807Z,4.95
2023-03-05T15:15:40.790Z,4.68
2023-03-05T15:18:11.214Z,4.95
2023-03-05T15:20:39.842Z,5.28
2023-03-05T15:23:07.033Z,4.75
2023-03-05T15:25:34.005Z,5.50
2023-03-05T15:28:00.734Z,5.00
2023-03-05T15:30:35.304Z,4.70
2023-03-05T15:33:05.436Z,4.70
2023-03-05T15:35:32.941Z,4.75
2023-03-05T15:37:59.725Z,4.65
2023-03-05T15:40:28.002Z,4.32
2023-03-05T15:42:55.922Z,5.10
2023-03-05T15:45:22.851Z,5.00
2023-03-05T15:47:51.742Z,5.20
2023-03-05T15:50:19.982Z,4.10
2023-03-05T15:52:47.196Z,4.07
2023-03-05T15:55:18.652Z,3.60
2023-03-05T15:57:48.646Z,4.15
2023-03-05T16:00:17.755Z,4.38
2023-03-05T16:02:45.366Z,4.07
2023-03-05T16:05:12.120Z,4.43
2023-03-05T16:07:41.965Z,4.22
2023-03-05T16:10:13.174Z,4.53
2023-03-05T16:12:42.245Z,4.80
2023-03-05T16:15:15.422Z,4.15
2023-03-05T16:17:45.114Z,4.20
2023-03-05T16:20:15.331Z,3.60
2023-03-05T16:22:42.494Z,3.70
2023-03-05T16:25:09.468Z,3.80
2023-03-05T16:27:36.709Z,3.65
2023-03-05T16:30:05.241Z,3.90
2023-03-05T16:32:33.939Z,4.20
2023-03-05T16:35:04.170Z,4.20
2023-03-05T16:37:31.521Z,4.05
2023-03-05T16:40:00.054Z,3.70
2023-03-05T16:42:27.041Z,3.60
2023-03-05T16:44:54.989Z,4.10
2023-03-05T16:47:21.779Z,3.65
2023-03-05T16:49:48.583Z,4.45
2023-03-05T16:52:19.819Z,4.45
2023-03-05T16:54:47.723Z,4.13
2023-03-05T16:57:14.537Z,3.90
2023-03-05T16:59:41.749Z,4.30
2023-03-05T17:02:08.805Z,4.45
2023-03-05T17:04:36.072Z,4.57
2023-03-05T17:07:04.296Z,3.75
2023-03-05T17:09:31.788Z,4.18
2023-03-05T17:11:58.825Z,4.55
2023-03-05T17:14:25.634Z,3.50
2023-03-05T17:19:19.442Z,5.53
2023-03-05T17:21:46.581Z,4.43
2023-03-05T17:24:13.394Z,3.67
2023-03-05T17:26:40.926Z,3.92
2023-03-05T17:29:07.646Z,3.92
2023-03-05T17:31:34.460Z,4.43
2023-03-05T17:34:02.304Z,4.07
2023-03-05T17:36:29.181Z,4.68
2023-03-05T17:38:56.203Z,4.60
2023-03-05T17:41:24.591Z,4.13
2023-03-05T17:43:51.846Z,4.43
2023-03-05T17:46:18.598Z,4.85
2023-03-05T17:48:45.374Z,3.50
2023-03-05T17:51:14.177Z,6.05
2023-03-05T17:53:40.922Z,4.85
2023-03-05T17:56:09.764Z,4.78
2023-03-05T17:58:36.987Z,4.50
2023-03-05T18:01:04.550Z,5.40
2023-03-05T18:03:31.244Z,4.88
2023-03-05T18:05:57.954Z,3.85
2023-03-05T18:08:24.702Z,3.78
2023-03-05T18:10:51.597Z,5.65
2023-03-05T18:13:18.297Z,4.28
2023-03-05T18:15:47.723Z,4.55
2023-03-05T18:18:16.078Z,4.57
2023-03-05T18:20:42.978Z,5.05
2023-03-05T18:23:10.660Z,5.10
2023-03-05T18:25:37.389Z,5.78
2023-03-05T18:28:08.667Z,5.07
2023-03-05T18:30:35.895Z,5.43
2023-03-05T18:33:03.119Z,5.68
2023-03-05T18:35:30.721Z,4.53
2023-03-05T18:37:57.902Z,5.63
2023-03-05T18:40:26.814Z,4.85
2023-03-05T18:42:54.085Z,5.18
2023-03-05T18:45:22.675Z,5.20
2023-03-05T18:50:18.815Z,5.40
2023-03-05T18:52:45.955Z,4.90
2023-03-05T18:55:18.076Z,6.10
2023-03-05T18:57:44.923Z,5.47
2023-03-05T19:00:17.865Z,5.43
2023-03-05T19:02:44.577Z,5.10
2023-03-05T19:05:13.691Z,5.32
2023-03-05T19:07:41.338Z,5.82
2023-03-05T19:10:13.894Z,6.43
2023-03-05T19:12:51.163Z,6.03
2023-03-05T19:15:19.253Z,5.78
2023-03-05T19:17:46.024Z,6.35
2023-03-05T19:20:14.629Z,5.50
2023-03-05T19:22:41.706Z,6.35
2023-03-05T19:25:09.965Z,5.45
2023-03-05T19:27:37.870Z,6.40
2023-03-05T19:30:07.766Z,5.68
2023-03-05T19:32:34.937Z,4.85
2023-03-05T19:35:02.467Z,5.95
2023-03-05T19:37:30.553Z,5.00
2023-03-05T19:39:57.208Z,5.03
2023-03-05T19:42:24.676Z,5.25
2023-03-05T19:47:19.534Z,5.03
2023-03-05T19:49:46.385Z,5.53
2023-03-05T19:52:14.369Z,5.10
2023-03-05T19:54:42.080Z,5.30
2023-03-05T19:57:09.777Z,5.32
2023-03-05T19:59:36.716Z,5.40
2023-03-05T20:02:04.740Z,6.37
2023-03-05T20:04:35.024Z,5.57
2023-03-05T20:07:04.081Z,5.15
2023-03-05T20:09:31.043Z,6.10
2023-03-05T20:12:03.058Z,5.10
2023-03-05T20:14:29.853Z,5.20
2023-03-05T20:16:56.665Z,5.30
2023-03-05T20:19:23.353Z,4.63
2023-03-05T20:21:50.017Z,5.40
2023-03-05T20:24:18.768Z,5.30
2023-03-05T20:26:47.466Z,5.88
2023-03-05T20:29:17.777Z,5.90
2023-03-05T20:31:45.578Z,6.00
2023-03-05T20:34:15.607Z,4.78
2023-03-05T20:36:43.258Z,6.03
2023-03-05T20:39:11.066Z,5.80
2023-03-05T20:41:39.309Z,5.82
2023-03-05T20:44:07.257Z,5.53
2023-03-05T20:46:36.720Z,5.95
2023-03-05T20:49:04.848Z,6.25
2023-03-05T20:51:38.607Z,6.25
2023-03-05T20:54:08.575Z,6.22
2023-03-05T20:56:37.170Z,5.60
2023-03-05T20:59:09.036Z,6.40
2023-03-05T21:01:39.063Z,5.93
2023-03-05T21:04:07.340Z,7.07
2023-03-05T21:06:34.693Z,5.70
2023-03-05T21:09:02.141Z,5.53
2023-03-05T21:11:29.009Z,5.90
2023-03-05T21:13:55.900Z,5.93
2023-03-05T21:16:25.409Z,5.65
2023-03-05T21:21:19.583Z,5.18
2023-03-05T21:23:48.287Z,5.72
2023-03-05T21:26:15.472Z,5.35
2023-03-05T21:28:42.661Z,5.32
2023-03-05T21:31:14.668Z,5.30
2023-03-05T21:33:42.305Z,5.20
2023-03-05T21:36:09.493Z,4.93
2023-03-05T21:38:36.799Z,5.35
2023-03-05T21:41:04.480Z,4.57
2023-03-05T21:43:32.700Z,5.63
2023-03-05T21:46:01.505Z,5.32
2023-03-05T21:48:28.467Z,4.40
2023-03-05T21:50:55.544Z,4.20
2023-03-05T21:53:23.152Z,3.63
2023-03-05T21:55:54.227Z,4.32
2023-03-05T21:58:20.946Z,4.78
2023-03-05T22:00:47.634Z,4.25
2023-03-05T22:03:14.289Z,3.97
2023-03-05T22:05:43.796Z,4.95
2023-03-05T22:08:10.571Z,4.28
2023-03-05T22:10:37.332Z,4.30
2023-03-05T22:13:10.744Z,4.28
2023-03-05T22:15:49.969Z,4.75
2023-03-05T22:18:22.405Z,4.85
2023-03-05T22:20:49.888Z,4.95
2023-03-05T22:23:18.177Z,4.55
2023-03-05T22:25:45.020Z,4.53
2023-03-05T22:28:13.055Z,4.63
2023-03-05T22:30:45.199Z,4.38
2023-03-05T22:33:12.558Z,5.60
2023-03-05T22:35:42.953Z,5.47
2023-03-05T22:38:11.435Z,5.15
2023-03-05T22:40:43.051Z,5.97
2023-03-05T22:43:10.042Z,5.90
2023-03-05T22:45:37.062Z,6.05
2023-03-05T22:48:04.076Z,5.47
2023-03-05T22:50:30.813Z,5.50
2023-03-05T22:52:58.680Z,5.70
2023-03-05T22:55:25.651Z,5.78
2023-03-05T23:00:26.291Z,5.32
2023-03-05T23:02:54.295Z,4.53
2023-03-05T23:05:21.828Z,5.40
2023-03-05T23:07:49.409Z,5.45
2023-03-05T23:10:19.773Z,5.00
2023-03-05T23:12:50.274Z,5.45
2023-03-05T23:15:23.306Z,6.28
2023-03-05T23:17:50.185Z,5.50
2023-03-05T23:20:21.110Z,6.03
2023-03-05T23:22:54.728Z,6.15
2023-03-05T23:25:23.310Z,5.85
2023-03-05T23:27:50.739Z,5.82
2023-03-05T23:30:18.210Z,5.45
2023-03-05T23:32:54.290Z,4.75
2023-03-05T23:35:27.612Z,5.97
2023-03-05T23:37:56.040Z,5.75
2023-03-05T23:40:25.880Z,4.95
2023-03-05T23:42:54.272Z,5.85
2023-03-05T23:45:22.285Z,4.90
2023-03-05T23:47:50.111Z,5.93
2023-03-05T23:50:22.407Z,5.15
2023-03-05T23:52:54.332Z,5.63
2023-03-05T23:55:30.633Z,5.80
2023-03-05T23:57:57.332Z,5.90
